createdAt,value
2018-09-10T00:00:27.269Z,53.91
2018-09-10T00:02:56.370Z,53.48
2018-09-10T00:05:25.538Z,53.87
2018-09-10T00:07:54.749Z,53.78
2018-09-10T00:10:23.934Z,54.17
2018-09-10T00:12:53.097Z,54.62
2018-09-10T00:15:22.295Z,54.14
2018-09-10T00:17:51.541Z,53.87
2018-09-10T00:20:20.740Z,53.68
2018-09-10T00:22:49.961Z,53.92
2018-09-10T00:25:19.182Z,54.00
2018-09-10T00:27:48.377Z,53.85
2018-09-10T00:30:17.528Z,53.50
2018-09-10T00:32:46.790Z,54.10
2018-09-10T00:35:16.130Z,53.68
2018-09-10T00:37:45.313Z,54.11
2018-09-10T00:40:14.538Z,54.28
2018-09-10T00:42:43.688Z,54.19
2018-09-10T00:45:12.811Z,54.02
2018-09-10T00:47:42.013Z,54.45
2018-09-10T00:50:11.118Z,54.36
2018-09-10T00:52:40.343Z,54.37
2018-09-10T00:55:09.517Z,54.08
2018-09-10T00:57:38.706Z,54.00
2018-09-10T01:00:07.893Z,54.39
2018-09-10T01:02:37.008Z,54.50
2018-09-10T01:05:06.259Z,54.49
2018-09-10T01:07:35.462Z,54.43
2018-09-10T01:10:04.744Z,54.44
2018-09-10T01:12:33.895Z,54.64
2018-09-10T01:15:03.101Z,54.42
2018-09-10T01:17:32.301Z,54.21
2018-09-10T01:20:01.433Z,54.41
2018-09-10T01:22:30.671Z,54.40
2018-09-10T01:24:59.847Z,54.71
2018-09-10T01:27:29.070Z,54.68
2018-09-10T01:29:58.277Z,54.66
2018-09-10T01:32:27.425Z,54.75
2018-09-10T01:35:03.136Z,54.71
2018-09-10T01:37:33.117Z,54.50
2018-09-10T01:40:02.698Z,54.62
2018-09-10T01:42:32.326Z,55.02
2018-09-10T01:45:02.284Z,54.95
2018-09-10T01:47:31.461Z,55.03
2018-09-10T01:50:00.642Z,55.09
2018-09-10T01:52:30.034Z,55.15
2018-09-10T01:54:59.285Z,54.82
2018-09-10T01:57:28.428Z,55.20
2018-09-10T01:59:57.553Z,55.10
2018-09-10T02:02:26.759Z,55.59
2018-09-10T02:04:56.168Z,55.79
2018-09-10T02:07:25.346Z,56.16
2018-09-10T02:09:54.509Z,55.91
2018-09-10T02:12:24.883Z,56.62
2018-09-10T02:14:55.491Z,56.49
2018-09-10T02:17:25.386Z,56.08
2018-09-10T02:19:54.895Z,55.90
2018-09-10T02:22:24.131Z,56.30
2018-09-10T02:24:53.331Z,56.99
2018-09-10T02:27:22.578Z,57.18
2018-09-10T02:29:51.719Z,56.92
2018-09-10T02:32:22.409Z,56.69
2018-09-10T02:34:51.674Z,56.85
2018-09-10T02:37:20.822Z,57.27
2018-09-10T02:39:49.924Z,56.88
2018-09-10T02:42:19.117Z,56.63
2018-09-10T02:44:48.360Z,56.81
2018-09-10T02:47:17.524Z,56.89
2018-09-10T02:49:46.779Z,57.06
2018-09-10T02:52:15.981Z,56.85
2018-09-10T02:54:45.157Z,57.01
2018-09-10T02:57:14.347Z,57.31
2018-09-10T02:59:43.480Z,57.11
2018-09-10T03:02:12.653Z,57.31
2018-09-10T03:04:44.209Z,57.14
2018-09-10T03:07:14.479Z,57.07
2018-09-10T03:09:43.564Z,57.14
2018-09-10T03:12:12.738Z,56.77
2018-09-10T03:14:41.922Z,56.80
2018-09-10T03:17:11.060Z,57.11
2018-09-10T03:19:40.211Z,56.92
2018-09-10T03:22:09.333Z,56.54
2018-09-10T03:24:38.539Z,56.63
2018-09-10T03:27:07.724Z,56.79
2018-09-10T03:29:36.895Z,57.12
2018-09-10T03:32:06.110Z,56.77
2018-09-10T03:34:35.270Z,57.01
2018-09-10T03:37:04.625Z,56.83
2018-09-10T03:39:33.745Z,56.57
2018-09-10T03:42:03.072Z,56.54
2018-09-10T03:44:32.290Z,56.92
2018-09-10T03:47:01.476Z,56.59
2018-09-10T03:49:30.594Z,57.05
2018-09-10T03:51:59.759Z,56.83
2018-09-10T03:54:28.969Z,56.95
2018-09-10T03:56:58.172Z,57.25
2018-09-10T03:59:27.310Z,57.66
2018-09-10T04:01:56.509Z,57.95
2018-09-10T04:04:25.792Z,57.84
2018-09-10T04:06:54.919Z,58.06
2018-09-10T04:09:24.103Z,58.05
2018-09-10T04:11:53.258Z,58.16
2018-09-10T04:14:22.403Z,58.53
2018-09-10T04:16:51.562Z,58.40
2018-09-10T04:19:20.733Z,58.69
2018-09-10T04:21:49.824Z,58.50
2018-09-10T04:24:18.944Z,58.62
2018-09-10T04:26:48.159Z,58.82
2018-09-10T04:29:17.299Z,58.89
2018-09-10T04:31:46.516Z,58.90
2018-09-10T04:34:15.653Z,59.22
2018-09-10T04:36:44.810Z,59.60
2018-09-10T04:39:13.972Z,59.29
2018-09-10T04:41:43.990Z,59.50
2018-09-10T04:44:13.163Z,59.62
2018-09-10T04:46:42.337Z,59.61
2018-09-10T04:49:11.496Z,59.23
2018-09-10T04:51:40.720Z,58.94
2018-09-10T04:54:09.910Z,58.92
2018-09-10T04:56:39.129Z,59.00
2018-09-10T04:59:08.294Z,59.32
2018-09-10T05:01:37.508Z,59.00
2018-09-10T05:04:06.681Z,58.79
2018-09-10T05:06:35.886Z,58.68
2018-09-10T05:09:07.001Z,58.72
2018-09-10T05:11:36.184Z,58.68
2018-09-10T05:14:05.351Z,58.64
2018-09-10T05:16:34.506Z,58.87
2018-09-10T05:19:03.916Z,59.04
2018-09-10T05:21:33.018Z,58.62
2018-09-10T05:24:02.226Z,58.55
2018-09-10T05:26:31.397Z,59.08
2018-09-10T05:29:00.538Z,58.64
2018-09-10T05:31:29.797Z,58.38
2018-09-10T05:33:58.981Z,58.42
2018-09-10T05:36:28.224Z,58.18
2018-09-10T05:38:57.465Z,57.74
2018-09-10T05:41:26.655Z,57.43
2018-09-10T05:43:55.888Z,57.48
2018-09-10T05:46:25.095Z,57.25
2018-09-10T05:48:54.256Z,57.10
2018-09-10T05:51:23.398Z,56.72
2018-09-10T05:53:52.572Z,56.32
2018-09-10T05:56:21.699Z,55.83
2018-09-10T05:58:50.917Z,55.44
2018-09-10T06:01:20.073Z,54.92
2018-09-10T06:03:49.366Z,54.59
2018-09-10T06:06:18.480Z,54.30
2018-09-10T06:08:47.598Z,53.76
2018-09-10T06:11:16.757Z,52.97
2018-09-10T06:13:45.912Z,52.23
2018-09-10T06:16:14.997Z,51.26
2018-09-10T06:18:44.278Z,50.15
2018-09-10T06:21:13.370Z,49.20
2018-09-10T06:23:42.576Z,48.73
2018-09-10T06:26:11.658Z,47.57
2018-09-10T06:28:41.082Z,46.74
2018-09-10T06:31:10.218Z,46.18
2018-09-10T06:33:39.371Z,45.67
2018-09-10T06:36:08.538Z,45.59
2018-09-10T06:38:37.673Z,45.20
2018-09-10T06:41:07.009Z,43.42
2018-09-10T06:43:36.233Z,42.58
2018-09-10T06:46:05.327Z,42.38
2018-09-10T06:48:36.048Z,41.27
2018-09-10T06:51:07.055Z,41.64
2018-09-10T06:53:36.286Z,40.63
2018-09-10T06:56:06.023Z,40.37
2018-09-10T06:58:35.863Z,40.94
2018-09-10T07:01:05.049Z,41.20
2018-09-10T07:03:34.169Z,41.42
2018-09-10T07:06:03.325Z,40.81
2018-09-10T07:08:32.426Z,39.98
2018-09-10T07:11:01.515Z,39.40
2018-09-10T07:13:31.388Z,38.59
2018-09-10T07:16:00.517Z,38.42
2018-09-10T07:18:29.744Z,38.96
2018-09-10T07:20:58.940Z,38.95
2018-09-10T07:23:28.129Z,38.80
2018-09-10T07:25:57.294Z,38.89
2018-09-10T07:28:26.464Z,38.80
2018-09-10T07:30:55.726Z,38.41
2018-09-10T07:33:24.858Z,38.61
2018-09-10T07:35:54.919Z,38.61
2018-09-10T07:38:24.064Z,38.49
2018-09-10T07:40:53.245Z,38.42
2018-09-10T07:43:22.462Z,38.45
2018-09-10T07:45:51.606Z,38.01
2018-09-10T07:48:20.758Z,37.89
2018-09-10T07:50:49.929Z,38.16
2018-09-10T07:53:19.053Z,38.99
2018-09-10T07:55:48.150Z,38.76
2018-09-10T07:58:17.246Z,38.14
2018-09-10T08:00:46.377Z,38.48
2018-09-10T08:03:15.527Z,37.96
2018-09-10T08:05:45.723Z,37.83
2018-09-10T08:08:14.920Z,37.12
2018-09-10T08:10:44.038Z,36.79
2018-09-10T08:13:13.425Z,35.78
2018-09-10T08:15:42.547Z,34.77
2018-09-10T08:18:11.764Z,35.28
2018-09-10T08:20:40.961Z,34.84
2018-09-10T08:23:10.218Z,34.93
2018-09-10T08:25:39.385Z,34.12
2018-09-10T08:28:08.534Z,33.50
2018-09-10T08:30:37.882Z,33.88
2018-09-10T08:33:07.397Z,33.55
2018-09-10T08:35:36.612Z,33.55
2018-09-10T08:38:05.823Z,33.56
2018-09-10T08:40:34.939Z,32.96
2018-09-10T08:43:04.584Z,33.62
2018-09-10T08:45:33.759Z,32.79
2018-09-10T08:48:02.921Z,31.94
2018-09-10T08:50:32.038Z,31.37
2018-09-10T08:53:01.218Z,31.24
2018-09-10T08:55:30.462Z,31.15
2018-09-10T08:57:59.604Z,30.95
2018-09-10T09:00:28.783Z,31.02
2018-09-10T09:02:57.899Z,31.43
2018-09-10T09:05:27.039Z,31.29
2018-09-10T09:07:56.188Z,30.88
2018-09-10T09:10:25.367Z,31.42
2018-09-10T09:12:54.493Z,31.22
2018-09-10T09:15:23.697Z,30.80
2018-09-10T09:17:52.872Z,31.42
2018-09-10T09:20:21.968Z,31.14
2018-09-10T09:22:51.147Z,31.62
2018-09-10T09:25:20.269Z,31.92
2018-09-10T09:27:49.446Z,31.82
2018-09-10T09:30:18.683Z,31.45
2018-09-10T09:32:47.748Z,31.68
2018-09-10T09:35:16.924Z,30.65
2018-09-10T09:38:49.267Z,31.17
2018-09-10T09:41:23.812Z,30.57
2018-09-10T09:43:58.478Z,30.69
2018-09-10T09:46:27.640Z,30.60
2018-09-10T09:48:56.801Z,30.54
2018-09-10T09:51:25.948Z,30.75
2018-09-10T09:53:55.059Z,30.80
2018-09-10T09:56:24.188Z,31.04
2018-09-10T09:58:53.332Z,30.25
2018-09-10T10:01:23.781Z,30.87
2018-09-10T10:03:58.129Z,30.55
2018-09-10T10:06:27.300Z,30.48
2018-09-10T10:08:56.491Z,29.42
2018-09-10T10:11:25.654Z,26.83
2018-09-10T10:13:54.779Z,25.53
2018-09-10T10:16:24.029Z,26.65
2018-09-10T10:18:53.160Z,27.21
2018-09-10T10:21:22.317Z,27.79
2018-09-10T10:23:51.521Z,28.24
2018-09-10T10:26:20.778Z,28.33
2018-09-10T10:28:49.973Z,28.97
2018-09-10T10:31:19.109Z,29.21
2018-09-10T10:33:48.388Z,29.90
2018-09-10T10:36:17.540Z,29.37
2018-09-10T10:38:46.718Z,30.56
2018-09-10T10:41:15.885Z,30.98
2018-09-10T10:43:45.091Z,31.29
2018-09-10T10:46:14.291Z,32.17
2018-09-10T10:48:43.512Z,32.37
2018-09-10T10:51:12.710Z,31.92
2018-09-10T10:53:41.944Z,31.91
2018-09-10T10:56:11.128Z,31.81
2018-09-10T10:58:40.360Z,31.80
2018-09-10T11:01:09.536Z,31.38
2018-09-10T11:03:38.753Z,31.60
2018-09-10T11:06:08.007Z,31.40
2018-09-10T11:08:37.183Z,31.67
2018-09-10T11:11:06.372Z,31.49
2018-09-10T11:13:35.537Z,31.18
2018-09-10T11:16:04.740Z,31.17
2018-09-10T11:18:33.938Z,31.28
2018-09-10T11:21:03.123Z,31.29
2018-09-10T11:23:32.284Z,30.91
2018-09-10T11:26:01.399Z,31.14
2018-09-10T11:28:30.541Z,30.34
2018-09-10T11:30:59.732Z,30.88
2018-09-10T11:33:28.868Z,29.72
2018-09-10T11:35:58.032Z,29.70
2018-09-10T11:38:27.222Z,29.06
2018-09-10T11:40:56.422Z,29.22
2018-09-10T11:43:25.600Z,28.97
2018-09-10T11:45:54.790Z,29.24
2018-09-10T11:48:24.000Z,28.41
2018-09-10T11:50:53.173Z,28.44
2018-09-10T11:53:22.429Z,28.18
2018-09-10T11:55:51.580Z,28.56
2018-09-10T11:58:20.741Z,28.69
2018-09-10T12:00:49.919Z,28.17
2018-09-10T12:03:19.084Z,28.68
2018-09-10T12:05:48.281Z,28.34
2018-09-10T12:08:17.806Z,27.92
2018-09-10T12:10:46.976Z,28.07
2018-09-10T12:13:16.155Z,28.75
2018-09-10T12:15:45.289Z,28.03
2018-09-10T12:18:14.458Z,28.00
2018-09-10T12:20:43.640Z,28.08
2018-09-10T12:23:13.010Z,27.83
2018-09-10T12:25:42.258Z,27.71
2018-09-10T12:28:11.426Z,27.79
2018-09-10T12:30:40.603Z,28.12
2018-09-10T12:33:09.776Z,28.27
2018-09-10T12:35:38.915Z,28.54
2018-09-10T12:38:08.042Z,28.83
2018-09-10T12:40:37.364Z,28.58
2018-09-10T12:43:06.437Z,28.34
2018-09-10T12:45:36.179Z,28.71
2018-09-10T12:48:05.270Z,28.74
2018-09-10T12:50:34.557Z,28.03
2018-09-10T12:53:03.689Z,28.33
2018-09-10T12:55:32.863Z,28.00
2018-09-10T12:58:03.004Z,28.47
2018-09-10T13:00:32.168Z,28.74
2018-09-10T13:03:01.296Z,29.11
2018-09-10T13:05:30.411Z,29.94
2018-09-10T13:07:59.546Z,30.48
2018-09-10T13:10:28.655Z,30.62
2018-09-10T13:12:57.754Z,30.58
2018-09-10T13:15:26.877Z,30.78
2018-09-10T13:17:55.982Z,31.07
2018-09-10T13:20:25.148Z,30.83
2018-09-10T13:22:54.284Z,31.24
2018-09-10T13:25:23.404Z,31.42
2018-09-10T13:27:52.513Z,30.95
2018-09-10T13:30:21.637Z,31.29
2018-09-10T13:32:50.758Z,31.95
2018-09-10T13:35:19.877Z,31.90
2018-09-10T13:37:49.035Z,32.30
2018-09-10T13:40:18.477Z,32.45
2018-09-10T13:42:47.600Z,32.71
2018-09-10T13:45:16.725Z,33.12
2018-09-10T13:47:46.021Z,33.29
2018-09-10T13:50:15.121Z,34.03
2018-09-10T13:52:44.248Z,34.03
2018-09-10T13:55:13.361Z,34.12
2018-09-10T13:57:42.464Z,33.90
2018-09-10T14:00:11.623Z,34.25
2018-09-10T14:02:40.742Z,34.71
2018-09-10T14:05:09.878Z,34.34
2018-09-10T14:07:38.972Z,34.47
2018-09-10T14:10:08.109Z,34.88
2018-09-10T14:12:37.218Z,35.11
2018-09-10T14:15:06.312Z,35.11
2018-09-10T14:17:35.443Z,35.44
2018-09-10T14:20:04.746Z,34.82
2018-09-10T14:22:33.934Z,35.11
2018-09-10T14:25:03.040Z,34.88
2018-09-10T14:27:32.145Z,35.11
2018-09-10T14:30:01.241Z,35.03
2018-09-10T14:32:30.325Z,35.58
2018-09-10T14:34:59.461Z,35.57
2018-09-10T14:37:28.555Z,35.29
2018-09-10T14:39:57.799Z,35.70
2018-09-10T14:42:26.899Z,34.98
2018-09-10T14:44:55.970Z,35.17
2018-09-10T14:47:25.064Z,35.34
2018-09-10T14:49:54.164Z,34.95
2018-09-10T14:52:23.276Z,34.41
2018-09-10T14:54:52.400Z,33.99
2018-09-10T14:57:21.609Z,34.28
2018-09-10T14:59:50.708Z,34.27
2018-09-10T15:02:19.801Z,34.00
2018-09-10T15:04:48.877Z,35.17
2018-09-10T15:07:17.949Z,35.02
2018-09-10T15:09:47.064Z,34.89
2018-09-10T15:12:16.220Z,35.30
2018-09-10T15:14:45.454Z,35.32
2018-09-10T15:17:14.544Z,35.80
2018-09-10T15:19:43.638Z,35.55
2018-09-10T15:22:12.738Z,36.30
2018-09-10T15:24:41.850Z,36.38
2018-09-10T15:27:10.953Z,36.58
2018-09-10T15:29:40.034Z,36.67
2018-09-10T15:32:09.117Z,37.14
2018-09-10T15:34:38.273Z,36.83
2018-09-10T15:37:07.302Z,37.51
2018-09-10T15:39:36.411Z,37.26
2018-09-10T15:42:05.809Z,36.99
2018-09-10T15:44:34.865Z,37.18
2018-09-10T15:47:03.989Z,37.58
2018-09-10T15:49:33.183Z,37.54
2018-09-10T15:52:02.316Z,37.95
2018-09-10T15:54:31.621Z,37.47
2018-09-10T15:57:00.688Z,37.82
2018-09-10T15:59:29.808Z,38.01
2018-09-10T16:01:58.885Z,37.80
2018-09-10T16:04:27.983Z,37.84
2018-09-10T16:06:57.094Z,38.60
2018-09-10T16:09:26.187Z,38.45
2018-09-10T16:11:55.276Z,38.32
2018-09-10T16:14:24.376Z,38.50
2018-09-10T16:16:53.510Z,38.13
2018-09-10T16:19:22.772Z,38.96
2018-09-10T16:21:51.872Z,38.91
2018-09-10T16:24:20.969Z,39.06
2018-09-10T16:26:50.071Z,39.28
2018-09-10T16:29:19.332Z,39.05
2018-09-10T16:31:48.415Z,39.17
2018-09-10T16:34:17.547Z,38.82
2018-09-10T16:36:46.630Z,38.89
2018-09-10T16:39:15.787Z,39.05
2018-09-10T16:41:44.921Z,39.48
2018-09-10T16:44:14.019Z,40.07
2018-09-10T16:46:43.095Z,40.56
2018-09-10T16:49:12.220Z,40.59
2018-09-10T16:51:41.345Z,40.07
2018-09-10T16:54:10.566Z,40.00
2018-09-10T16:56:39.627Z,40.48
2018-09-10T16:59:08.745Z,40.72
2018-09-10T17:01:37.850Z,40.98
2018-09-10T17:04:06.950Z,40.25
2018-09-10T17:06:36.125Z,40.56
2018-09-10T17:09:07.257Z,40.54
2018-09-10T17:11:36.415Z,41.25
2018-09-10T17:14:05.593Z,40.82
2018-09-10T17:16:34.689Z,41.09
2018-09-10T17:19:03.842Z,41.90
2018-09-10T17:21:32.934Z,42.46
2018-09-10T17:24:02.037Z,43.05
2018-09-10T17:26:31.115Z,43.63
2018-09-10T17:29:00.215Z,44.36
2018-09-10T17:31:29.323Z,44.98
2018-09-10T17:33:58.423Z,44.97
2018-09-10T17:36:27.542Z,44.59
2018-09-10T17:38:56.661Z,45.01
2018-09-10T17:41:25.737Z,44.33
2018-09-10T17:43:54.852Z,43.82
2018-09-10T17:46:23.971Z,43.34
2018-09-10T17:48:53.196Z,43.53
2018-09-10T17:51:22.312Z,43.41
2018-09-10T17:53:51.439Z,43.22
2018-09-10T17:56:20.574Z,43.49
2018-09-10T17:58:49.684Z,43.75
2018-09-10T18:01:18.764Z,43.42
2018-09-10T18:03:47.927Z,43.18
2018-09-10T18:06:17.080Z,43.51
2018-09-10T18:08:46.164Z,43.56
2018-09-10T18:11:15.244Z,44.35
2018-09-10T18:13:44.338Z,44.54
2018-09-10T18:16:13.436Z,44.81
2018-09-10T18:18:42.527Z,44.86
2018-09-10T18:21:11.641Z,45.25
2018-09-10T18:23:40.749Z,45.61
2018-09-10T18:26:09.845Z,45.57
2018-09-10T18:28:38.908Z,45.44
2018-09-10T18:31:08.028Z,45.57
2018-09-10T18:33:37.180Z,45.88
2018-09-10T18:36:06.297Z,45.70
2018-09-10T18:38:35.397Z,45.82
2018-09-10T18:41:04.587Z,45.90
2018-09-10T18:43:33.787Z,45.82
2018-09-10T18:46:02.894Z,45.72
2018-09-10T18:48:31.980Z,46.33
2018-09-10T18:51:01.102Z,46.03
2018-09-10T18:53:30.201Z,46.42
2018-09-10T18:55:59.371Z,46.79
2018-09-10T18:58:28.667Z,46.63
2018-09-10T19:00:57.921Z,46.92
2018-09-10T19:03:27.038Z,46.89
2018-09-10T19:05:56.172Z,46.94
2018-09-10T19:08:25.341Z,46.83
2018-09-10T19:10:54.583Z,46.57
2018-09-10T19:13:23.766Z,46.87
2018-09-10T19:15:52.947Z,46.98
2018-09-10T19:18:26.146Z,46.82
2018-09-10T19:20:55.307Z,46.89
2018-09-10T19:23:24.539Z,47.04
2018-09-10T19:25:53.685Z,47.03
2018-09-10T19:28:22.776Z,47.07
2018-09-10T19:30:51.919Z,47.21
2018-09-10T19:33:21.022Z,47.33
2018-09-10T19:35:50.157Z,47.96
2018-09-10T19:38:19.281Z,47.29
2018-09-10T19:40:48.400Z,47.65
2018-09-10T19:43:17.536Z,47.52
2018-09-10T19:45:46.695Z,47.33
2018-09-10T19:48:15.839Z,47.56
2018-09-10T19:50:44.970Z,47.35
2018-09-10T19:53:14.124Z,47.08
2018-09-10T19:55:43.500Z,47.22
2018-09-10T19:58:12.652Z,47.70
2018-09-10T20:00:41.786Z,47.74
2018-09-10T20:03:11.173Z,47.04
2018-09-10T20:05:40.319Z,47.66
2018-09-10T20:08:09.460Z,47.64
2018-09-10T20:10:38.554Z,47.59
2018-09-10T20:13:07.666Z,48.01
2018-09-10T20:15:36.785Z,47.87
2018-09-10T20:18:05.915Z,47.84
2018-09-10T20:20:35.081Z,47.85
2018-09-10T20:23:04.223Z,47.91
2018-09-10T20:25:33.417Z,48.49
2018-09-10T20:28:02.586Z,48.17
2018-09-10T20:30:31.768Z,48.22
2018-09-10T20:33:00.932Z,48.63
2018-09-10T20:35:30.071Z,48.38
2018-09-10T20:37:59.307Z,48.35
2018-09-10T20:40:28.556Z,48.55
2018-09-10T20:42:57.757Z,48.95
2018-09-10T20:45:27.003Z,48.93
2018-09-10T20:47:56.170Z,49.36
2018-09-10T20:50:25.319Z,49.97
2018-09-10T20:52:54.509Z,49.87
2018-09-10T20:55:23.675Z,50.56
2018-09-10T20:57:52.876Z,50.68
2018-09-10T21:00:22.048Z,51.19
2018-09-10T21:02:51.231Z,51.95
2018-09-10T21:05:20.391Z,52.26
2018-09-10T21:07:49.562Z,52.11
2018-09-10T21:10:18.679Z,50.81
2018-09-10T21:12:47.853Z,50.79
2018-09-10T21:15:17.073Z,50.62
2018-09-10T21:17:46.252Z,50.02
2018-09-10T21:20:15.387Z,50.05
2018-09-10T21:22:44.577Z,49.67
2018-09-10T21:25:13.727Z,49.45
2018-09-10T21:27:42.901Z,49.43
2018-09-10T21:30:12.086Z,49.19
2018-09-10T21:32:41.235Z,49.51
2018-09-10T21:35:10.369Z,49.51
2018-09-10T21:37:39.532Z,49.43
2018-09-10T21:40:08.656Z,49.96
2018-09-10T21:42:37.799Z,49.75
2018-09-10T21:45:06.956Z,50.08
2018-09-10T21:47:36.148Z,49.81
2018-09-10T21:50:05.341Z,49.96
2018-09-10T21:52:34.491Z,50.23
2018-09-10T21:55:03.711Z,50.13
2018-09-10T21:57:32.915Z,50.10
2018-09-10T22:00:02.142Z,49.75
2018-09-10T22:02:31.321Z,49.81
2018-09-10T22:05:00.498Z,49.73
2018-09-10T22:07:29.654Z,49.95
2018-09-10T22:09:58.828Z,49.72
2018-09-10T22:12:28.280Z,49.85
2018-09-10T22:14:57.417Z,49.88
2018-09-10T22:17:26.573Z,49.45
2018-09-10T22:19:55.772Z,49.61
2018-09-10T22:22:24.948Z,49.32
2018-09-10T22:24:54.127Z,49.26
2018-09-10T22:27:23.439Z,49.36
2018-09-10T22:29:52.647Z,49.43
2018-09-10T22:32:21.826Z,49.54
2018-09-10T22:34:50.972Z,49.36
2018-09-10T22:37:20.155Z,49.47
2018-09-10T22:39:49.297Z,49.56
2018-09-10T22:42:18.522Z,49.27
2018-09-10T22:44:47.718Z,49.44
2018-09-10T22:47:16.856Z,49.37
2018-09-10T22:49:45.972Z,49.42
2018-09-10T22:52:15.071Z,49.45
2018-09-10T22:54:44.174Z,49.07
2018-09-10T22:57:13.326Z,49.34
2018-09-10T22:59:42.445Z,49.22
2018-09-10T23:02:11.567Z,49.50
2018-09-10T23:04:40.724Z,49.41
2018-09-10T23:07:09.835Z,49.27
2018-09-10T23:09:38.944Z,49.10
2018-09-10T23:12:08.086Z,49.62
2018-09-10T23:14:37.299Z,49.36
2018-09-10T23:17:06.514Z,49.35
2018-09-10T23:19:35.633Z,49.21
2018-09-10T23:22:04.738Z,48.99
2018-09-10T23:24:33.958Z,49.17
2018-09-10T23:27:03.150Z,49.60
2018-09-10T23:29:32.334Z,49.38
2018-09-10T23:32:01.476Z,49.62
2018-09-10T23:34:30.622Z,49.32
2018-09-10T23:36:59.761Z,49.38
2018-09-10T23:39:28.898Z,49.82
2018-09-10T23:41:58.132Z,50.10
2018-09-10T23:44:27.351Z,50.02
2018-09-10T23:46:56.555Z,50.12
2018-09-10T23:49:25.754Z,49.43
2018-09-10T23:51:54.976Z,50.14
2018-09-10T23:54:24.133Z,49.95
2018-09-10T23:56:53.359Z,49.45
2018-09-10T23:59:22.523Z,49.49
